createdAt,value
2023-02-06T00:00:29.786Z,3.80
2023-02-06T00:03:23.829Z,3.00
2023-02-06T00:06:10.749Z,1.58
2023-02-06T00:08:51.802Z,4.43
2023-02-06T00:11:38.749Z,3.78
2023-02-06T00:14:19.792Z,1.95
2023-02-06T00:17:07.816Z,3.50
2023-02-06T00:19:42.914Z,1.70
2023-02-06T00:22:29.763Z,4.03
2023-02-06T00:25:10.774Z,3.45
2023-02-06T00:28:04.799Z,3.47
2023-02-06T00:33:39.766Z,4.97
2023-02-06T00:36:26.796Z,2.55
2023-02-06T00:39:07.748Z,1.80
2023-02-06T00:41:56.760Z,1.27
2023-02-06T00:44:37.753Z,3.75
2023-02-06T00:47:24.794Z,3.55
2023-02-06T00:50:05.785Z,3.03
2023-02-06T00:52:59.732Z,3.88
2023-02-06T00:55:46.756Z,1.38
2023-02-06T00:58:20.861Z,0.88
2023-02-06T01:01:08.768Z,1.98
2023-02-06T01:03:49.802Z,3.88
2023-02-06T01:06:43.774Z,2.63
2023-02-06T01:09:30.806Z,1.60
2023-02-06T01:12:11.743Z,1.98
2023-02-06T01:15:05.740Z,2.28
2023-02-06T01:17:52.755Z,2.78
2023-02-06T01:20:33.785Z,4.40
2023-02-06T01:23:27.777Z,3.78
2023-02-06T01:26:19.787Z,2.35
2023-02-06T01:29:01.777Z,2.90
2023-02-06T01:31:48.811Z,4.30
2023-02-06T01:34:29.766Z,3.78
2023-02-06T01:37:17.744Z,3.15
2023-02-06T01:39:51.828Z,2.75
2023-02-06T01:42:41.778Z,3.70
2023-02-06T01:48:09.792Z,2.42
2023-02-06T01:50:45.811Z,2.67
2023-02-06T01:53:33.771Z,1.10
2023-02-06T01:56:16.748Z,2.90
2023-02-06T01:59:12.788Z,1.40
2023-02-06T02:02:06.820Z,2.70
2023-02-06T02:07:30.846Z,2.67
2023-02-06T02:10:18.758Z,2.22
2023-02-06T02:12:52.881Z,4.35
2023-02-06T02:16:00.817Z,5.13
2023-02-06T02:18:41.909Z,4.53
2023-02-06T02:21:35.754Z,3.60
2023-02-06T02:24:22.749Z,4.10
2023-02-06T02:27:22.813Z,2.80
2023-02-06T02:29:59.895Z,2.80
2023-02-06T02:35:26.760Z,2.10
2023-02-06T02:38:19.796Z,3.53
2023-02-06T02:41:00.786Z,3.72
2023-02-06T02:43:51.827Z,2.72
2023-02-06T02:46:58.759Z,2.88
2023-02-06T02:49:39.834Z,1.25
2023-02-06T02:52:20.822Z,2.63
2023-02-06T02:55:01.755Z,4.40
2023-02-06T02:57:43.796Z,4.40
2023-02-06T03:00:32.817Z,2.03
2023-02-06T03:03:13.745Z,3.10
2023-02-06T03:06:39.751Z,3.78
2023-02-06T03:09:19.817Z,2.88
2023-02-06T03:12:17.797Z,3.55
2023-02-06T03:14:55.870Z,5.50
2023-02-06T03:17:46.768Z,4.13
2023-02-06T03:20:29.775Z,5.18
2023-02-06T03:23:21.793Z,4.20
2023-02-06T03:26:00.833Z,3.53
2023-02-06T03:28:55.744Z,3.72
2023-02-06T03:31:45.841Z,4.95
2023-02-06T03:34:45.769Z,6.97
2023-02-06T03:37:28.769Z,3.08
2023-02-06T03:40:16.751Z,3.58
2023-02-06T03:43:12.782Z,3.20
2023-02-06T03:46:02.876Z,2.47
2023-02-06T03:48:44.810Z,3.20
2023-02-06T03:51:43.764Z,3.00
2023-02-06T03:54:20.895Z,2.47
2023-02-06T03:57:09.806Z,2.30
2023-02-06T03:59:57.784Z,3.65
2023-02-06T04:02:32.048Z,4.45
2023-02-06T04:05:19.756Z,4.20
2023-02-06T04:08:02.755Z,4.85
2023-02-06T04:10:50.770Z,4.72
2023-02-06T04:13:30.786Z,3.88
2023-02-06T04:16:18.820Z,3.80
2023-02-06T04:18:52.805Z,6.32
2023-02-06T04:21:40.773Z,4.18
2023-02-06T04:24:20.831Z,5.25
2023-02-06T04:27:08.782Z,2.97
2023-02-06T04:29:42.749Z,3.60
2023-02-06T04:32:30.789Z,4.22
2023-02-06T04:35:05.224Z,3.40
2023-02-06T04:37:52.810Z,2.85
2023-02-06T04:40:39.782Z,2.10
2023-02-06T04:43:13.866Z,1.58
2023-02-06T04:46:00.773Z,2.22
2023-02-06T04:48:34.839Z,2.22
2023-02-06T04:51:21.804Z,3.38
2023-02-06T04:53:55.842Z,2.42
2023-02-06T04:56:42.764Z,3.33
2023-02-06T04:59:23.753Z,4.80
2023-02-06T05:02:10.779Z,2.75
2023-02-06T05:04:44.830Z,1.75
2023-02-06T05:07:32.740Z,2.45
2023-02-06T05:10:15.786Z,3.15
2023-02-06T05:13:09.769Z,2.40
2023-02-06T05:15:56.822Z,3.88
2023-02-06T05:18:37.792Z,1.45
2023-02-06T05:21:24.768Z,2.80
2023-02-06T05:24:12.752Z,3.80
2023-02-06T05:26:46.706Z,1.55
2023-02-06T05:29:34.785Z,2.00
2023-02-06T05:32:08.692Z,2.25
2023-02-06T05:34:56.824Z,4.40
2023-02-06T05:37:51.741Z,2.58
2023-02-06T05:40:39.769Z,3.80
2023-02-06T05:43:13.873Z,3.22
2023-02-06T05:46:00.811Z,1.33
2023-02-06T05:48:35.185Z,3.78
2023-02-06T05:51:22.756Z,0.93
2023-02-06T05:54:03.773Z,5.20
2023-02-06T05:56:58.747Z,4.35
2023-02-06T05:59:46.762Z,5.55
2023-02-06T06:02:20.828Z,3.38
2023-02-06T06:05:07.841Z,3.25
2023-02-06T06:07:48.787Z,6.22
2023-02-06T06:10:42.748Z,5.25
2023-02-06T06:13:29.762Z,5.53
2023-02-06T06:16:03.920Z,5.95
2023-02-06T06:18:50.782Z,6.28
2023-02-06T06:21:24.862Z,4.60
2023-02-06T06:24:12.766Z,5.82
2023-02-06T06:26:46.912Z,5.13
2023-02-06T06:29:34.780Z,5.57
2023-02-06T06:32:15.762Z,5.00
2023-02-06T06:35:09.780Z,20.20
2023-02-06T06:37:56.744Z,18.55
2023-02-06T06:40:30.839Z,18.02
2023-02-06T06:43:17.801Z,12.30
2023-02-06T06:45:58.880Z,10.82
2023-02-06T06:48:52.744Z,9.70
2023-02-06T06:51:39.755Z,7.70
2023-02-06T06:54:15.223Z,8.20
2023-02-06T06:57:01.753Z,7.32
2023-02-06T06:59:35.886Z,5.80
2023-02-06T07:02:23.757Z,5.70
2023-02-06T07:05:04.792Z,7.07
2023-02-06T07:07:51.764Z,6.28
2023-02-06T07:10:32.780Z,7.53
2023-02-06T07:13:21.814Z,7.22
2023-02-06T07:16:02.851Z,6.97
2023-02-06T07:18:43.743Z,7.57
2023-02-06T07:21:31.790Z,7.00
2023-02-06T07:24:05.918Z,8.05
2023-02-06T07:26:53.765Z,11.38
2023-02-06T07:29:27.704Z,13.07
2023-02-06T07:32:15.805Z,13.02
2023-02-06T07:34:55.768Z,12.00
2023-02-06T07:37:36.850Z,13.52
2023-02-06T07:40:17.769Z,14.65
2023-02-06T07:43:05.789Z,12.27
2023-02-06T07:45:39.980Z,14.65
2023-02-06T07:48:27.792Z,10.07
2023-02-06T07:51:08.930Z,9.27
2023-02-06T07:53:56.765Z,11.27
2023-02-06T07:56:37.793Z,11.15
2023-02-06T07:59:18.896Z,8.40
2023-02-06T08:01:59.760Z,20.90
2023-02-06T08:04:47.783Z,9.60
2023-02-06T08:07:27.794Z,6.28
2023-02-06T08:10:15.848Z,10.93
2023-02-06T08:12:55.794Z,8.15
2023-02-06T08:15:37.106Z,4.13
2023-02-06T08:18:16.799Z,2.95
2023-02-06T08:20:57.863Z,8.10
2023-02-06T08:23:38.803Z,3.63
2023-02-06T08:26:22.050Z,3.95
2023-02-06T08:29:02.797Z,5.72
2023-02-06T08:31:45.949Z,4.40
2023-02-06T08:34:25.786Z,4.25
2023-02-06T08:37:13.938Z,8.15
2023-02-06T08:39:53.789Z,2.88
2023-02-06T08:42:34.914Z,10.82
2023-02-06T08:45:15.798Z,5.47
2023-02-06T08:48:03.794Z,4.18
2023-02-06T08:50:37.876Z,5.47
2023-02-06T08:53:25.810Z,3.60
2023-02-06T08:56:04.008Z,5.57
2023-02-06T08:58:51.807Z,10.48
2023-02-06T09:01:32.857Z,5.97
2023-02-06T09:04:19.163Z,6.40
2023-02-06T09:06:59.778Z,6.40
2023-02-06T09:09:41.005Z,7.28
2023-02-06T09:12:21.796Z,5.45
2023-02-06T09:15:09.809Z,3.40
2023-02-06T09:17:43.855Z,5.45
2023-02-06T09:20:32.788Z,3.97
2023-02-06T09:23:12.789Z,3.75
2023-02-06T09:25:53.868Z,1.95
2023-02-06T09:28:34.812Z,6.25
2023-02-06T09:31:22.792Z,4.15
2023-02-06T09:33:56.786Z,1.75
2023-02-06T09:36:44.780Z,4.03
2023-02-06T09:39:18.753Z,4.03
2023-02-06T09:42:11.766Z,3.45
2023-02-06T09:44:59.774Z,4.40
2023-02-06T09:47:45.734Z,5.70
2023-02-06T09:50:32.793Z,3.90
2023-02-06T09:53:22.980Z,4.15
2023-02-06T09:56:09.760Z,5.90
2023-02-06T09:59:00.778Z,5.47
2023-02-06T10:01:40.848Z,5.15
2023-02-06T10:04:24.940Z,7.47
2023-02-06T10:07:25.792Z,8.70
2023-02-06T10:10:09.927Z,5.32
2023-02-06T10:12:56.781Z,7.80
2023-02-06T10:15:47.007Z,4.88
2023-02-06T10:18:45.755Z,24.17
2023-02-06T10:21:43.775Z,10.77
2023-02-06T10:24:29.807Z,9.05
2023-02-06T10:27:23.801Z,6.45
2023-02-06T10:30:03.766Z,5.32
2023-02-06T10:32:54.805Z,5.85
2023-02-06T10:35:43.175Z,6.63
2023-02-06T10:38:30.800Z,6.90
2023-02-06T10:41:13.784Z,8.43
2023-02-06T10:43:54.833Z,6.20
2023-02-06T10:46:35.851Z,8.32
2023-02-06T10:49:30.353Z,8.55
2023-02-06T10:52:14.797Z,8.18
2023-02-06T10:55:00.973Z,8.32
2023-02-06T10:57:41.821Z,6.65
2023-02-06T11:00:39.146Z,7.00
2023-02-06T11:03:21.810Z,6.85
2023-02-06T11:06:09.837Z,8.80
2023-02-06T11:08:48.026Z,5.97
2023-02-06T11:11:41.796Z,5.20
2023-02-06T11:14:29.804Z,5.18
2023-02-06T11:17:10.886Z,8.27
2023-02-06T11:19:50.829Z,9.48
2023-02-06T11:22:47.727Z,9.00
2023-02-06T11:25:39.206Z,8.75
2023-02-06T11:28:29.878Z,9.68
2023-02-06T11:31:05.030Z,8.32
2023-02-06T11:33:54.788Z,3.95
2023-02-06T11:36:33.222Z,8.15
2023-02-06T11:39:33.794Z,9.82
2023-02-06T11:44:45.769Z,8.23
2023-02-06T11:47:37.428Z,8.55
2023-02-06T11:50:30.812Z,4.75
2023-02-06T11:53:05.860Z,8.07
2023-02-06T11:56:04.804Z,8.27
2023-02-06T11:58:38.886Z,5.47
2023-02-06T12:01:27.806Z,9.52
2023-02-06T12:04:04.856Z,8.82
2023-02-06T12:06:52.786Z,9.10
2023-02-06T12:09:33.779Z,9.23
2023-02-06T12:12:39.788Z,9.70
2023-02-06T12:15:46.938Z,8.90
2023-02-06T12:18:50.800Z,6.45
2023-02-06T12:21:40.806Z,8.23
2023-02-06T12:27:04.807Z,9.70
2023-02-06T12:29:51.798Z,11.30
2023-02-06T12:32:48.775Z,11.15
2023-02-06T12:35:41.822Z,9.52
2023-02-06T12:38:25.857Z,9.65
2023-02-06T12:41:13.808Z,9.05
2023-02-06T12:43:57.859Z,7.45
2023-02-06T12:46:38.802Z,9.15
2023-02-06T12:49:32.819Z,9.25
2023-02-06T12:52:15.266Z,9.98
2023-02-06T12:55:20.796Z,9.95
2023-02-06T12:58:01.819Z,10.07
2023-02-06T13:01:12.057Z,9.25
2023-02-06T13:03:58.797Z,8.90
2023-02-06T13:07:24.782Z,13.35
2023-02-06T13:10:03.475Z,12.05
2023-02-06T13:12:50.818Z,11.20
2023-02-06T13:15:36.168Z,9.48
2023-02-06T13:18:41.833Z,11.23
2023-02-06T13:21:23.797Z,9.85
2023-02-06T13:24:16.802Z,8.65
2023-02-06T13:27:01.820Z,5.55
2023-02-06T13:29:47.053Z,6.35
2023-02-06T13:32:28.817Z,6.57
2023-02-06T13:35:12.849Z,6.85
2023-02-06T13:37:54.812Z,12.40
2023-02-06T13:40:37.190Z,8.95
2023-02-06T13:43:26.821Z,10.25
2023-02-06T13:46:15.870Z,10.55
2023-02-06T13:49:12.852Z,11.05
2023-02-06T13:52:15.972Z,9.10
2023-02-06T13:55:06.826Z,6.65
2023-02-06T13:58:12.839Z,12.77
2023-02-06T14:00:49.372Z,8.25
2023-02-06T14:03:37.800Z,7.50
2023-02-06T14:06:11.749Z,4.70
2023-02-06T14:09:17.808Z,3.78
2023-02-06T14:12:13.353Z,4.82
2023-02-06T14:15:03.828Z,10.57
2023-02-06T14:17:44.221Z,10.70
2023-02-06T14:20:34.792Z,13.75
2023-02-06T14:23:14.495Z,8.75
2023-02-06T14:26:19.824Z,7.88
2023-02-06T14:29:08.154Z,8.10
2023-02-06T14:31:55.859Z,8.52
2023-02-06T14:34:52.852Z,9.10
2023-02-06T14:37:40.788Z,7.78
2023-02-06T14:40:25.157Z,9.13
2023-02-06T14:43:13.005Z,11.93
2023-02-06T14:46:06.969Z,12.77
2023-02-06T14:49:00.789Z,6.47
2023-02-06T14:51:47.815Z,10.32
2023-02-06T14:54:49.832Z,17.77
2023-02-06T14:57:37.801Z,11.15
2023-02-06T15:00:33.989Z,18.92
2023-02-06T15:03:29.822Z,16.38
2023-02-06T15:06:19.785Z,15.25
2023-02-06T15:09:01.842Z,4.32
2023-02-06T15:12:03.772Z,11.38
2023-02-06T15:15:02.974Z,8.75
2023-02-06T15:17:44.800Z,5.60
2023-02-06T15:20:38.096Z,11.77
2023-02-06T15:23:34.797Z,21.25
2023-02-06T15:26:47.821Z,18.33
2023-02-06T15:29:35.801Z,14.45
2023-02-06T15:32:36.874Z,10.32
2023-02-06T15:35:42.850Z,10.23
2023-02-06T15:38:31.785Z,10.98
2023-02-06T15:41:15.844Z,6.72
2023-02-06T15:44:12.802Z,10.55
2023-02-06T15:47:00.837Z,5.00
2023-02-06T15:49:52.794Z,17.05
2023-02-06T15:52:45.825Z,8.63
2023-02-06T15:55:31.902Z,6.53
2023-02-06T15:58:21.822Z,6.72
2023-02-06T16:01:05.733Z,7.32
2023-02-06T16:03:47.788Z,14.15
2023-02-06T16:06:29.016Z,10.50
2023-02-06T16:09:12.822Z,10.68
2023-02-06T16:11:57.891Z,9.25
2023-02-06T16:14:43.876Z,6.80
2023-02-06T16:17:31.837Z,5.25
2023-02-06T16:20:24.516Z,2.72
2023-02-06T16:23:37.806Z,10.75
2023-02-06T16:26:21.704Z,18.50
2023-02-06T16:29:12.799Z,10.73
2023-02-06T16:31:53.833Z,6.78
2023-02-06T16:34:40.631Z,5.85
2023-02-06T16:37:25.823Z,5.70
2023-02-06T16:40:13.879Z,6.28
2023-02-06T16:43:01.866Z,4.47
2023-02-06T16:45:35.902Z,6.38
2023-02-06T16:48:23.831Z,9.43
2023-02-06T16:50:57.903Z,4.15
2023-02-06T16:53:45.828Z,5.53
2023-02-06T16:56:19.964Z,6.97
2023-02-06T16:59:07.808Z,6.72
2023-02-06T17:01:48.909Z,2.50
2023-02-06T17:04:42.830Z,6.05
2023-02-06T17:07:31.997Z,5.05
2023-02-06T17:10:06.025Z,4.15
2023-02-06T17:12:53.807Z,6.40
2023-02-06T17:15:35.908Z,8.93
2023-02-06T17:18:31.798Z,2.92
2023-02-06T17:21:20.832Z,5.45
2023-02-06T17:23:55.928Z,2.67
2023-02-06T17:26:42.797Z,29.10
2023-02-06T17:29:30.780Z,36.78
2023-02-06T17:32:06.988Z,11.23
2023-02-06T17:34:54.800Z,9.52
2023-02-06T17:37:48.975Z,6.53
2023-02-06T17:40:38.098Z,10.88
2023-02-06T17:43:19.813Z,6.03
2023-02-06T17:46:13.828Z,6.43
2023-02-06T17:49:00.807Z,3.67
2023-02-06T17:51:41.808Z,5.63
2023-02-06T17:54:36.952Z,7.80
2023-02-06T17:57:23.988Z,9.73
2023-02-06T18:00:07.998Z,3.05
2023-02-06T18:02:55.064Z,5.30
2023-02-06T18:05:30.082Z,12.25
2023-02-06T18:08:18.009Z,7.38
2023-02-06T18:10:59.004Z,9.13
2023-02-06T18:13:39.952Z,7.18
2023-02-06T18:16:28.823Z,7.60
2023-02-06T18:19:30.000Z,7.40
2023-02-06T18:22:18.941Z,9.48
2023-02-06T18:25:00.822Z,5.22
2023-02-06T18:27:56.051Z,7.57
2023-02-06T18:30:42.847Z,10.75
2023-02-06T18:33:16.993Z,9.27
2023-02-06T18:36:04.821Z,8.40
2023-02-06T18:38:46.037Z,7.38
2023-02-06T18:41:59.082Z,5.10
2023-02-06T18:44:53.014Z,5.70
2023-02-06T18:47:40.003Z,4.03
2023-02-06T18:50:14.124Z,6.40
2023-02-06T18:53:02.111Z,7.22
2023-02-06T18:55:43.821Z,6.60
2023-02-06T18:58:37.783Z,12.20
2023-02-06T19:01:27.999Z,8.10
2023-02-06T19:04:08.809Z,9.80
2023-02-06T19:07:03.776Z,8.00
2023-02-06T19:09:51.808Z,8.07
2023-02-06T19:12:28.314Z,6.35
2023-02-06T19:15:15.999Z,9.50
2023-02-06T19:17:56.813Z,5.25
2023-02-06T19:20:55.014Z,28.52
2023-02-06T19:23:43.997Z,7.32
2023-02-06T19:26:19.888Z,7.40
2023-02-06T19:29:07.278Z,7.85
2023-02-06T19:31:42.856Z,10.27
2023-02-06T19:34:30.021Z,7.80
2023-02-06T19:37:03.896Z,4.60
2023-02-06T19:39:50.797Z,9.07
2023-02-06T19:42:24.928Z,3.30
2023-02-06T19:45:13.811Z,9.82
2023-02-06T19:47:54.812Z,11.18
2023-02-06T19:50:48.802Z,6.80
2023-02-06T19:53:36.818Z,3.88
2023-02-06T19:56:11.889Z,4.88
2023-02-06T19:59:02.963Z,4.13
2023-02-06T20:01:43.992Z,3.15
2023-02-06T20:04:39.836Z,11.40
2023-02-06T20:07:28.186Z,16.65
2023-02-06T20:10:09.077Z,12.75
2023-02-06T20:12:49.037Z,5.45
2023-02-06T20:15:32.077Z,8.90
2023-02-06T20:18:12.842Z,14.15
2023-02-06T20:21:06.810Z,18.25
2023-02-06T20:23:56.004Z,15.02
2023-02-06T20:26:38.028Z,12.25
2023-02-06T20:29:38.997Z,8.15
2023-02-06T20:32:27.380Z,2.53
2023-02-06T20:35:00.894Z,5.28
2023-02-06T20:37:47.985Z,5.18
2023-02-06T20:40:22.878Z,3.83
2023-02-06T20:43:09.985Z,2.85
2023-02-06T20:45:44.016Z,4.25
2023-02-06T20:48:30.831Z,4.90
2023-02-06T20:51:15.956Z,15.77
2023-02-06T20:54:09.932Z,9.05
2023-02-06T20:56:57.996Z,6.03
2023-02-06T20:59:32.053Z,7.13
2023-02-06T21:02:19.030Z,6.72
2023-02-06T21:04:53.035Z,5.18
2023-02-06T21:07:40.930Z,8.88
2023-02-06T21:10:15.942Z,6.95
2023-02-06T21:13:09.975Z,11.23
2023-02-06T21:15:58.841Z,10.73
2023-02-06T21:18:40.835Z,9.70
2023-02-06T21:21:22.395Z,6.28
2023-02-06T21:24:09.800Z,4.95
2023-02-06T21:26:50.823Z,5.32
2023-02-06T21:29:31.905Z,4.78
2023-02-06T21:32:14.443Z,4.85
2023-02-06T21:35:01.808Z,1.83
2023-02-06T21:37:35.851Z,5.07
2023-02-06T21:40:23.817Z,6.40
2023-02-06T21:43:03.808Z,6.38
2023-02-06T21:45:46.980Z,6.72
2023-02-06T21:48:26.845Z,15.98
2023-02-06T21:51:18.906Z,17.33
2023-02-06T21:53:59.843Z,4.85
2023-02-06T21:56:48.846Z,5.50
2023-02-06T21:59:22.788Z,5.38
2023-02-06T22:02:10.852Z,7.43
2023-02-06T22:04:51.885Z,4.85
2023-02-06T22:07:39.850Z,3.22
2023-02-06T22:10:13.797Z,3.45
2023-02-06T22:13:04.822Z,3.15
2023-02-06T22:15:39.322Z,2.65
2023-02-06T22:18:26.839Z,4.50
2023-02-06T22:21:18.854Z,3.95
2023-02-06T22:24:06.859Z,2.92
2023-02-06T22:26:47.864Z,2.08
2023-02-06T22:29:30.056Z,7.22
2023-02-06T22:32:10.823Z,3.83
2023-02-06T22:34:59.833Z,1.77
2023-02-06T22:37:34.378Z,2.95
2023-02-06T22:40:21.865Z,4.15
2023-02-06T22:43:01.838Z,8.30
2023-02-06T22:45:49.875Z,2.35
2023-02-06T22:48:30.875Z,5.25
2023-02-06T22:51:15.971Z,5.15
2023-02-06T22:53:56.886Z,5.03
2023-02-06T22:56:40.026Z,2.85
2023-02-06T22:59:19.884Z,1.55
2023-02-06T23:02:01.998Z,3.85
2023-02-06T23:04:44.876Z,1.35
2023-02-06T23:07:25.946Z,4.05
2023-02-06T23:10:06.899Z,3.58
2023-02-06T23:12:48.142Z,3.42
2023-02-06T23:15:29.872Z,3.63
2023-02-06T23:18:11.146Z,2.63
2023-02-06T23:20:51.866Z,3.20
2023-02-06T23:23:32.944Z,3.00
2023-02-06T23:26:14.883Z,2.92
2023-02-06T23:29:02.840Z,5.25
2023-02-06T23:31:43.953Z,1.55
2023-02-06T23:34:25.073Z,2.78
2023-02-06T23:37:06.853Z,3.85
2023-02-06T23:39:47.900Z,3.58
2023-02-06T23:42:28.854Z,2.70
2023-02-06T23:45:16.837Z,3.22
2023-02-06T23:47:51.461Z,2.65
2023-02-06T23:50:38.855Z,0.73
2023-02-06T23:53:18.842Z,1.88
2023-02-06T23:55:59.940Z,1.58
2023-02-06T23:58:47.809Z,1.42
